Hurlburt Field Mary Esther US
ICAO: KHRT
IATA: HRT
Category: Medium
Scheduled Services: No

Elevation: 38 ft
TransAlt. 18000 ft.

Airport Communications:
EGLIN APP:37.915
EGLIN APP:133
ATIS:36.067
EGLIN DEP:132.1
GND:123.975
PMSV METRO:39.075
COMD POST:140.4
PTD:37.22
TWR:126.5

KHRT Zoom In..

If you have problems with the map follow the link
https://www.worldairports.se/pages/airport.php?
ICAO=KHRT

Runways:

(A) RW 18 length 9600 ft width 150 ft
---- / hdg 178

(B) RW 36 length 9600 ft width 150 ft
ILS 111.30 / hdg 358

Location; KHRT
Day. 11 / Time. 12.56 Zulu
* Altimeter: 30.29
* Temperature: 09° c. 48.2°f.
* Wind from: 020° Speed 16 kn with Gusts up to 21 kn.
Dewpoint: 04° c.
Visibility: 7 Statute Miles.
Clouds: Few 4600 ft.
Clouds: Overcast 9000 ft.
Conditions: Light Rain.

KHRT 111256Z 02016G21KT 7SM -RA FEW046 OVC090 09/04 A3029 RMK AO2A SLP259 T00890043 $


Wind From 020°
Speed 16 kn.

 
 
jpsmedia worldairports.se 2019   terms of use